createdAt,value
2023-06-22T00:01:55.383Z,6.37
2023-06-22T00:04:40.755Z,5.63
2023-06-22T00:07:26.152Z,5.77
2023-06-22T00:10:11.449Z,5.53
2023-06-22T00:12:56.769Z,5.33
2023-06-22T00:15:42.872Z,5.80
2023-06-22T00:18:29.348Z,6.37
2023-06-22T00:21:15.251Z,6.20
2023-06-22T00:24:00.585Z,5.47
2023-06-22T00:26:45.872Z,6.20
2023-06-22T00:29:31.303Z,5.77
2023-06-22T00:32:18.324Z,5.83
2023-06-22T00:35:06.574Z,6.03
2023-06-22T00:37:58.767Z,5.63
2023-06-22T00:40:44.448Z,5.28
2023-06-22T00:43:29.773Z,5.93
2023-06-22T00:46:15.604Z,5.90
2023-06-22T00:49:02.596Z,6.33
2023-06-22T00:51:48.918Z,5.50
2023-06-22T00:54:36.049Z,5.60
2023-06-22T00:57:22.011Z,6.13
2023-06-22T01:00:10.182Z,6.30
2023-06-22T01:02:55.933Z,6.00
2023-06-22T01:05:41.509Z,5.90
2023-06-22T01:08:45.776Z,5.30
2023-06-22T01:11:39.509Z,5.40
2023-06-22T01:14:33.252Z,5.83
2023-06-22T01:17:20.793Z,5.63
2023-06-22T01:20:09.454Z,5.40
2023-06-22T01:23:29.049Z,5.37
2023-06-22T01:26:42.940Z,5.60
2023-06-22T01:29:30.368Z,5.25
2023-06-22T01:32:16.188Z,5.20
2023-06-22T01:35:05.688Z,5.30
2023-06-22T01:37:51.518Z,5.70
2023-06-22T01:40:38.431Z,5.40
2023-06-22T01:43:26.437Z,5.60
2023-06-22T01:46:13.101Z,5.10
2023-06-22T01:48:59.023Z,5.17
2023-06-22T01:51:44.816Z,4.97
2023-06-22T01:54:30.745Z,5.40
2023-06-22T01:57:16.485Z,5.40
2023-06-22T02:00:13.141Z,5.97
2023-06-22T02:03:07.065Z,7.23
2023-06-22T02:06:02.831Z,6.47
2023-06-22T02:08:53.186Z,6.87
2023-06-22T02:11:45.614Z,6.67
2023-06-22T02:14:31.164Z,7.30
2023-06-22T02:17:18.735Z,6.70
2023-06-22T02:20:09.248Z,6.60
2023-06-22T02:22:54.849Z,6.90
2023-06-22T02:25:40.788Z,6.83
2023-06-22T02:28:26.370Z,6.63
2023-06-22T02:31:12.214Z,6.77
2023-06-22T02:33:59.426Z,7.07
2023-06-22T02:36:51.795Z,6.63
2023-06-22T02:39:37.902Z,6.38
2023-06-22T02:42:23.336Z,6.90
2023-06-22T02:45:12.433Z,6.20
2023-06-22T02:47:58.629Z,7.43
2023-06-22T02:50:44.163Z,7.30
2023-06-22T02:53:29.436Z,6.77
2023-06-22T02:56:14.803Z,7.03
2023-06-22T02:59:02.982Z,6.67
2023-06-22T03:01:54.409Z,7.10
2023-06-22T03:04:50.321Z,6.43
2023-06-22T03:07:36.032Z,6.83
2023-06-22T03:10:21.301Z,6.70
2023-06-22T03:13:06.712Z,6.80
2023-06-22T03:15:52.173Z,7.10
2023-06-22T03:18:38.132Z,6.70
2023-06-22T03:21:24.280Z,6.53
2023-06-22T03:24:11.267Z,6.37
2023-06-22T03:26:58.742Z,7.00
2023-06-22T03:29:44.348Z,6.33
2023-06-22T03:32:30.489Z,7.07
2023-06-22T03:35:18.243Z,6.27
2023-06-22T03:38:03.753Z,6.33
2023-06-22T03:40:49.902Z,6.70
2023-06-22T03:43:35.184Z,7.07
2023-06-22T03:46:23.063Z,6.40
2023-06-22T03:49:08.924Z,5.93
2023-06-22T03:51:54.122Z,6.27
2023-06-22T03:54:39.287Z,6.27
2023-06-22T03:57:24.682Z,6.13
2023-06-22T04:00:11.400Z,6.80
2023-06-22T04:03:01.200Z,6.77
2023-06-22T04:05:47.427Z,7.30
2023-06-22T04:08:33.132Z,6.90
2023-06-22T04:11:19.626Z,6.90
2023-06-22T04:14:05.320Z,6.80
2023-06-22T04:16:50.546Z,6.70
2023-06-22T04:19:36.175Z,6.83
2023-06-22T04:22:21.552Z,7.07
2023-06-22T04:25:08.686Z,7.40
2023-06-22T04:27:54.213Z,7.13
2023-06-22T04:30:47.380Z,7.03
2023-06-22T04:36:18.260Z,7.13
2023-06-22T04:39:03.711Z,7.43
2023-06-22T04:41:49.210Z,7.30
2023-06-22T04:44:34.655Z,7.13
2023-06-22T04:47:20.642Z,7.20
2023-06-22T04:50:08.653Z,7.50
2023-06-22T04:52:54.308Z,6.73
2023-06-22T04:55:42.868Z,6.90
2023-06-22T04:58:33.623Z,7.10
2023-06-22T05:01:19.030Z,7.17
2023-06-22T05:04:06.552Z,7.30
2023-06-22T05:06:53.388Z,7.23
2023-06-22T05:09:38.696Z,20.50
2023-06-22T05:12:23.967Z,18.93
2023-06-22T05:15:09.807Z,17.33
2023-06-22T05:17:55.309Z,12.07
2023-06-22T05:20:40.572Z,8.87
2023-06-22T05:23:25.911Z,8.30
2023-06-22T05:26:11.370Z,9.57
2023-06-22T05:28:57.038Z,8.87
2023-06-22T05:31:42.771Z,9.33
2023-06-22T05:34:28.504Z,8.73
2023-06-22T05:37:14.057Z,8.23
2023-06-22T05:39:59.707Z,7.77
2023-06-22T05:42:45.183Z,8.37
2023-06-22T05:45:30.409Z,7.90
2023-06-22T05:48:15.908Z,8.10
2023-06-22T05:51:01.100Z,8.47
2023-06-22T05:53:50.535Z,8.03
2023-06-22T05:56:36.096Z,8.83
2023-06-22T05:59:21.770Z,8.17
2023-06-22T06:02:07.332Z,7.63
2023-06-22T06:04:53.806Z,9.10
2023-06-22T06:07:39.029Z,9.17
2023-06-22T06:10:24.429Z,9.13
2023-06-22T06:13:09.782Z,8.40
2023-06-22T06:15:56.655Z,9.50
2023-06-22T06:18:41.794Z,9.37
2023-06-22T06:21:29.576Z,8.40
2023-06-22T06:24:16.280Z,9.13
2023-06-22T06:27:01.483Z,8.70
2023-06-22T06:29:49.150Z,8.73
2023-06-22T06:32:34.768Z,9.23
2023-06-22T06:35:20.178Z,8.60
2023-06-22T06:38:05.506Z,9.00
2023-06-22T06:40:50.893Z,7.57
2023-06-22T06:43:36.176Z,8.23
2023-06-22T06:46:21.732Z,8.27
2023-06-22T06:49:07.388Z,8.13
2023-06-22T06:51:52.809Z,8.67
2023-06-22T06:54:37.939Z,8.47
2023-06-22T06:57:23.731Z,7.90
2023-06-22T07:00:12.969Z,8.30
2023-06-22T07:02:58.365Z,7.87
2023-06-22T07:05:43.554Z,7.93
2023-06-22T07:08:29.913Z,7.67
2023-06-22T07:11:15.186Z,8.47
2023-06-22T07:14:02.428Z,7.50
2023-06-22T07:16:47.579Z,8.53
2023-06-22T07:19:34.703Z,8.13
2023-06-22T07:22:20.507Z,8.30
2023-06-22T07:25:10.255Z,7.33
2023-06-22T07:28:04.525Z,8.13
2023-06-22T07:30:49.778Z,8.23
2023-06-22T07:33:35.009Z,8.23
2023-06-22T07:36:20.377Z,7.83
2023-06-22T07:39:06.142Z,8.10
2023-06-22T07:41:51.340Z,7.90
2023-06-22T07:44:36.390Z,7.70
2023-06-22T07:47:26.150Z,7.77
2023-06-22T07:50:11.839Z,8.10
2023-06-22T07:52:57.064Z,8.10
2023-06-22T07:55:42.479Z,8.10
2023-06-22T07:58:27.817Z,8.00
2023-06-22T08:01:13.740Z,8.30
2023-06-22T08:03:59.210Z,8.43
2023-06-22T08:06:44.884Z,8.30
2023-06-22T08:09:32.019Z,8.00
2023-06-22T08:12:17.701Z,8.40
2023-06-22T08:15:03.106Z,8.20
2023-06-22T08:17:48.757Z,8.60
2023-06-22T08:20:34.678Z,8.90
2023-06-22T08:23:20.051Z,8.57
2023-06-22T08:26:05.492Z,9.10
2023-06-22T08:28:51.176Z,9.10
2023-06-22T08:31:36.720Z,9.37
2023-06-22T08:34:24.217Z,8.70
2023-06-22T08:37:10.276Z,8.27
2023-06-22T08:39:55.818Z,8.50
2023-06-22T08:42:41.883Z,9.50
2023-06-22T08:45:28.270Z,9.13
2023-06-22T08:48:16.072Z,8.83
2023-06-22T08:51:01.304Z,9.00
2023-06-22T08:53:46.550Z,9.13
2023-06-22T08:56:31.792Z,9.13
2023-06-22T08:59:17.173Z,9.40
2023-06-22T09:02:02.410Z,9.43
2023-06-22T09:04:47.822Z,9.93
2023-06-22T09:07:35.587Z,9.67
2023-06-22T09:10:21.377Z,9.80
2023-06-22T09:13:06.987Z,10.37
2023-06-22T09:15:53.421Z,10.20
2023-06-22T09:18:38.959Z,10.37
2023-06-22T09:21:24.728Z,10.57
2023-06-22T09:24:10.235Z,10.10
2023-06-22T09:26:55.529Z,10.57
2023-06-22T09:29:41.004Z,11.37
2023-06-22T09:32:26.984Z,10.13
2023-06-22T09:35:14.492Z,9.70
2023-06-22T09:37:59.850Z,10.60
2023-06-22T09:40:45.138Z,10.83
2023-06-22T09:43:32.754Z,9.87
2023-06-22T09:46:18.293Z,10.60
2023-06-22T09:49:03.507Z,9.80
2023-06-22T09:51:48.710Z,10.37
2023-06-22T09:54:33.838Z,10.17
2023-06-22T09:57:19.370Z,9.63
2023-06-22T10:00:06.957Z,10.13
2023-06-22T10:02:53.957Z,9.97
2023-06-22T10:05:39.653Z,9.77
2023-06-22T10:08:24.993Z,9.93
2023-06-22T10:11:10.286Z,10.83
2023-06-22T10:13:56.188Z,10.33
2023-06-22T10:16:42.209Z,10.10
2023-06-22T10:19:28.307Z,10.10
2023-06-22T10:22:13.732Z,10.07
2023-06-22T10:24:58.940Z,9.63
2023-06-22T10:27:45.232Z,9.77
2023-06-22T10:30:32.214Z,9.40
2023-06-22T10:33:17.554Z,9.60
2023-06-22T10:36:02.768Z,10.10
2023-06-22T10:38:48.876Z,9.87
2023-06-22T10:41:34.313Z,9.77
2023-06-22T10:44:19.566Z,9.87
2023-06-22T10:47:04.989Z,9.50
2023-06-22T10:49:50.660Z,9.37
2023-06-22T10:52:35.989Z,10.47
2023-06-22T10:55:21.229Z,10.17
2023-06-22T10:58:08.593Z,9.77
2023-06-22T11:00:54.339Z,9.97
2023-06-22T11:03:39.676Z,9.87
2023-06-22T11:06:24.978Z,10.07
2023-06-22T11:09:23.792Z,10.10
2023-06-22T11:12:12.310Z,9.40
2023-06-22T11:14:59.665Z,10.40
2023-06-22T11:17:45.382Z,10.57
2023-06-22T11:20:30.724Z,10.17
2023-06-22T11:23:16.385Z,10.47
2023-06-22T11:26:01.734Z,10.50
2023-06-22T11:28:47.147Z,10.57
2023-06-22T11:31:34.455Z,10.33
2023-06-22T11:34:20.296Z,10.47
2023-06-22T11:37:05.946Z,10.50
2023-06-22T11:39:59.870Z,10.67
2023-06-22T11:42:52.166Z,10.23
2023-06-22T11:45:37.669Z,10.70
2023-06-22T11:48:22.966Z,10.07
2023-06-22T11:51:09.320Z,10.27
2023-06-22T11:53:55.281Z,10.10
2023-06-22T11:56:40.628Z,10.20
2023-06-22T11:59:26.896Z,10.10
2023-06-22T12:02:12.529Z,10.40
2023-06-22T12:04:59.276Z,10.37
2023-06-22T12:07:44.758Z,10.00
2023-06-22T12:10:30.622Z,9.83
2023-06-22T12:13:16.478Z,9.73
2023-06-22T12:16:02.151Z,9.67
2023-06-22T12:18:47.829Z,10.20
2023-06-22T12:21:33.523Z,10.13
2023-06-22T12:24:18.946Z,9.70
2023-06-22T12:27:04.821Z,10.17
2023-06-22T12:29:50.287Z,9.63
2023-06-22T12:32:35.810Z,10.40
2023-06-22T12:35:21.220Z,10.13
2023-06-22T12:38:08.357Z,9.67
2023-06-22T12:40:54.050Z,10.60
2023-06-22T12:43:39.440Z,10.80
2023-06-22T12:46:24.733Z,10.10
2023-06-22T12:49:09.931Z,10.47
2023-06-22T12:51:55.389Z,10.03
2023-06-22T12:54:53.942Z,9.63
2023-06-22T12:57:40.507Z,9.87
2023-06-22T13:00:29.018Z,10.53
2023-06-22T13:03:15.369Z,9.17
2023-06-22T13:06:00.975Z,10.07
2023-06-22T13:11:38.012Z,9.50
2023-06-22T13:14:23.673Z,9.60
2023-06-22T13:17:09.346Z,9.90
2023-06-22T13:19:54.541Z,9.60
2023-06-22T13:22:44.631Z,9.63
2023-06-22T13:25:34.851Z,9.70
2023-06-22T13:28:28.353Z,9.20
2023-06-22T13:31:16.533Z,9.83
2023-06-22T13:34:02.247Z,10.03
2023-06-22T13:36:47.600Z,10.00
2023-06-22T13:39:32.893Z,9.50
2023-06-22T13:42:18.426Z,9.40
2023-06-22T13:45:04.579Z,9.87
2023-06-22T13:47:50.003Z,9.43
2023-06-22T13:50:35.364Z,9.73
2023-06-22T13:53:21.013Z,9.53
2023-06-22T13:56:06.900Z,9.67
2023-06-22T13:58:52.629Z,9.40
2023-06-22T14:01:40.291Z,9.07
2023-06-22T14:04:26.524Z,9.50
2023-06-22T14:07:15.143Z,10.00
2023-06-22T14:10:02.379Z,9.80
2023-06-22T14:12:48.429Z,9.17
2023-06-22T14:15:34.469Z,8.77
2023-06-22T14:18:20.115Z,8.70
2023-06-22T14:21:05.493Z,9.43
2023-06-22T14:23:50.868Z,9.07
2023-06-22T14:26:36.157Z,9.43
2023-06-22T14:29:22.536Z,9.47
2023-06-22T14:32:08.894Z,8.97
2023-06-22T14:34:54.158Z,8.73
2023-06-22T14:37:39.271Z,9.87
2023-06-22T14:40:26.815Z,8.70
2023-06-22T14:43:12.868Z,8.57
2023-06-22T14:45:59.259Z,9.00
2023-06-22T14:48:45.139Z,8.80
2023-06-22T14:51:30.553Z,9.30
2023-06-22T14:54:18.108Z,8.97
2023-06-22T14:57:06.698Z,9.27
2023-06-22T14:59:55.436Z,8.63
2023-06-22T15:02:42.298Z,9.30
2023-06-22T15:05:27.568Z,8.77
2023-06-22T15:08:13.101Z,9.27
2023-06-22T15:11:03.045Z,8.90
2023-06-22T15:13:48.472Z,8.73
2023-06-22T15:16:33.673Z,8.70
2023-06-22T15:19:18.956Z,9.00
2023-06-22T15:22:06.050Z,9.07
2023-06-22T15:24:56.691Z,8.83
2023-06-22T15:27:42.195Z,8.73
2023-06-22T15:30:28.404Z,8.73
2023-06-22T15:33:14.071Z,8.60
2023-06-22T15:36:04.784Z,8.87
2023-06-22T15:38:50.774Z,8.63
2023-06-22T15:41:35.951Z,8.63
2023-06-22T15:44:22.217Z,8.97
2023-06-22T15:47:08.131Z,8.67
2023-06-22T15:49:53.572Z,9.27
2023-06-22T15:52:40.089Z,9.43
2023-06-22T15:55:25.976Z,8.73
2023-06-22T15:58:14.155Z,8.43
2023-06-22T16:00:59.762Z,9.90
2023-06-22T16:03:45.026Z,8.43
2023-06-22T16:06:30.521Z,9.27
2023-06-22T16:09:15.931Z,9.67
2023-06-22T16:12:03.222Z,8.77
2023-06-22T16:14:48.843Z,9.17
2023-06-22T16:17:38.727Z,8.80
2023-06-22T16:20:24.478Z,9.13
2023-06-22T16:23:10.543Z,9.47
2023-06-22T16:25:56.167Z,9.57
2023-06-22T16:28:41.843Z,9.73
2023-06-22T16:31:28.272Z,9.93
2023-06-22T16:34:13.764Z,9.57
2023-06-22T16:36:59.062Z,10.47
2023-06-22T16:39:44.267Z,9.93
2023-06-22T16:42:29.584Z,8.87
2023-06-22T16:45:18.281Z,9.63
2023-06-22T16:48:04.073Z,9.33
2023-06-22T16:50:49.760Z,9.50
2023-06-22T16:53:36.385Z,9.63
2023-06-22T16:56:28.291Z,8.93
2023-06-22T16:59:14.408Z,8.33
2023-06-22T17:02:01.198Z,9.73
2023-06-22T17:04:46.957Z,9.23
2023-06-22T17:07:35.173Z,8.67
2023-06-22T17:10:23.912Z,9.70
2023-06-22T17:13:09.716Z,9.40
2023-06-22T17:16:01.039Z,9.20
2023-06-22T17:18:47.474Z,9.47
2023-06-22T17:21:35.838Z,9.63
2023-06-22T17:24:21.815Z,8.93
2023-06-22T17:27:07.461Z,9.27
2023-06-22T17:30:08.901Z,9.03
2023-06-22T17:32:54.298Z,8.87
2023-06-22T17:35:53.651Z,9.20
2023-06-22T17:38:39.353Z,9.53
2023-06-22T17:41:33.801Z,10.20
2023-06-22T17:44:26.977Z,11.00
2023-06-22T17:47:12.504Z,10.30
2023-06-22T17:50:10.476Z,10.37
2023-06-22T17:52:57.276Z,9.60
2023-06-22T17:55:42.585Z,9.90
2023-06-22T17:58:27.850Z,8.93
2023-06-22T18:01:14.634Z,9.50
2023-06-22T18:04:00.379Z,9.83
2023-06-22T18:06:47.774Z,9.70
2023-06-22T18:09:34.325Z,8.97
2023-06-22T18:12:21.633Z,8.30
2023-06-22T18:15:08.511Z,9.33
2023-06-22T18:17:54.595Z,8.87
2023-06-22T18:20:41.730Z,8.43
2023-06-22T18:23:30.391Z,8.40
2023-06-22T18:26:17.445Z,8.87
2023-06-22T18:29:03.022Z,8.43
2023-06-22T18:31:48.330Z,8.30
2023-06-22T18:34:34.009Z,8.30
2023-06-22T18:37:21.038Z,9.23
2023-06-22T18:40:09.193Z,8.37
2023-06-22T18:43:01.067Z,8.70
2023-06-22T18:45:46.262Z,8.43
2023-06-22T18:48:31.574Z,9.13
2023-06-22T18:51:16.777Z,8.23
2023-06-22T18:54:07.965Z,8.77
2023-06-22T18:56:58.645Z,8.93
2023-06-22T18:59:55.587Z,8.87
2023-06-22T19:02:44.795Z,9.17
2023-06-22T19:05:43.979Z,8.90
2023-06-22T19:09:07.533Z,9.10
2023-06-22T19:12:22.996Z,8.90
2023-06-22T19:15:15.338Z,8.70
2023-06-22T19:18:14.108Z,9.13
2023-06-22T19:21:08.702Z,8.57
2023-06-22T19:23:53.856Z,9.60
2023-06-22T19:26:39.125Z,8.50
2023-06-22T19:29:24.980Z,8.93
2023-06-22T19:32:11.257Z,9.17
2023-06-22T19:34:57.279Z,9.63
2023-06-22T19:37:43.044Z,9.03
2023-06-22T19:40:28.223Z,9.73
2023-06-22T19:43:15.796Z,9.83
2023-06-22T19:46:01.889Z,9.63
2023-06-22T19:48:47.662Z,9.43
2023-06-22T19:51:36.909Z,9.40
2023-06-22T19:54:22.962Z,8.90
2023-06-22T19:57:08.547Z,9.27
2023-06-22T19:59:53.987Z,9.57
2023-06-22T20:02:45.694Z,9.30
2023-06-22T20:05:31.701Z,9.77
2023-06-22T20:08:17.636Z,9.47
2023-06-22T20:11:02.970Z,8.67
2023-06-22T20:13:49.227Z,9.13
2023-06-22T20:16:47.765Z,10.20
2023-06-22T20:19:39.944Z,9.47
2023-06-22T20:22:25.198Z,9.80
2023-06-22T20:25:10.530Z,9.70
2023-06-22T20:27:56.473Z,9.50
2023-06-22T20:31:05.816Z,8.87
2023-06-22T20:34:04.777Z,8.83
2023-06-22T20:36:51.106Z,9.07
2023-06-22T20:39:36.472Z,9.30
2023-06-22T20:42:21.977Z,8.87
2023-06-22T20:45:08.436Z,9.60
2023-06-22T20:47:58.411Z,9.50
2023-06-22T20:50:43.689Z,9.70
2023-06-22T20:53:31.553Z,9.50
2023-06-22T20:56:17.824Z,9.60
2023-06-22T20:59:03.126Z,9.73
2023-06-22T21:01:48.517Z,9.13
2023-06-22T21:04:35.818Z,9.57
2023-06-22T21:07:22.933Z,9.40
2023-06-22T21:10:08.550Z,9.47
2023-06-22T21:12:54.058Z,9.77
2023-06-22T21:15:39.314Z,9.80
2023-06-22T21:18:24.731Z,9.60
2023-06-22T21:21:10.111Z,9.60
2023-06-22T21:23:55.546Z,9.77
2023-06-22T21:26:40.640Z,9.83
2023-06-22T21:29:26.018Z,9.30
2023-06-22T21:32:11.184Z,9.20
2023-06-22T21:34:56.605Z,9.50
2023-06-22T21:37:45.907Z,9.70
2023-06-22T21:40:31.444Z,9.30
2023-06-22T21:43:16.984Z,9.47
2023-06-22T21:46:02.589Z,9.50
2023-06-22T21:48:47.658Z,9.50
2023-06-22T21:51:35.016Z,9.47
2023-06-22T21:54:20.984Z,9.27
2023-06-22T21:57:06.749Z,9.03
2023-06-22T21:59:52.258Z,9.23
2023-06-22T22:02:37.496Z,9.40
2023-06-22T22:05:23.854Z,9.00
2023-06-22T22:08:10.122Z,9.70
2023-06-22T22:10:55.356Z,9.07
2023-06-22T22:13:41.885Z,9.80
2023-06-22T22:16:27.271Z,9.40
2023-06-22T22:19:13.826Z,9.43
2023-06-22T22:21:59.202Z,9.80
2023-06-22T22:24:44.632Z,9.23
2023-06-22T22:27:30.280Z,9.20
2023-06-22T22:30:16.050Z,9.50
2023-06-22T22:33:01.600Z,9.37
2023-06-22T22:35:47.074Z,9.67
2023-06-22T22:38:35.719Z,9.70
2023-06-22T22:41:21.335Z,9.20
2023-06-22T22:44:06.582Z,8.97
2023-06-22T22:46:51.861Z,8.60
2023-06-22T22:49:37.633Z,9.40
2023-06-22T22:52:22.883Z,9.23
2023-06-22T22:55:08.429Z,8.83
2023-06-22T22:57:54.790Z,9.70
2023-06-22T23:00:40.161Z,8.97
2023-06-22T23:03:27.058Z,9.67
2023-06-22T23:06:12.372Z,9.07
2023-06-22T23:08:57.626Z,9.20
2023-06-22T23:11:43.096Z,9.40
2023-06-22T23:14:28.180Z,9.43
2023-06-22T23:17:14.547Z,8.20
2023-06-22T23:20:01.778Z,8.60
2023-06-22T23:22:54.978Z,6.00
2023-06-22T23:25:40.158Z,4.65
2023-06-22T23:28:36.712Z,4.47
2023-06-22T23:31:22.911Z,5.27
2023-06-22T23:34:08.283Z,5.80
2023-06-22T23:36:53.511Z,5.70
2023-06-22T23:39:39.139Z,6.57
2023-06-22T23:42:24.725Z,6.57
2023-06-22T23:45:10.397Z,6.70
2023-06-22T23:47:56.510Z,6.37
2023-06-22T23:50:41.802Z,6.73
2023-06-22T23:53:30.487Z,6.50
2023-06-22T23:56:16.006Z,5.90
2023-06-22T23:59:01.259Z,5.63
